MyTimes logo

TIMES

Webb Imagery

11/02/2012
Channel Challenge
550m Swim / 2.0km Run

(Click on competitor name to view personalised results)

Name
Race #
Category
Time
(h:mm:ss)
Avg Speed
km/hr
OAll
Place
Cat
Place
ANDERSON Ben#610Junior Male0:11:49"12.9 " 11
MCGUIRE Nick#609Junior Male0:11:50"12.9 " 22
BONDARENKO Sascha#153Senior Male0:11:58"12.8 " 31
BUSCHKUEHL Nathan#106Senior Male0:12:08"12.6 " 42
WALPOLE Stuart#36Senior Male0:12:29"12.3 " 53
FANNON Carl#15Senior Male0:13:02"11.7 " 64
GUILLE Tim#1Senior Male0:13:17"11.5 " 75
PLANT Luke#202Senior Male0:13:33"11.3 " 86
COOTE Millicent#458Senior Female0:13:44"11.1 " 91
BENNETT James#769Junior Male0:13:50"11.1 " 103
BUTT Chloe#374Senior Female0:13:52"11.0 " 112
FLEISNER Rob#681Male 50+0:13:57"11.0 " 121
CURNOW Edward#109Senior Male0:13:58"11.0 " 137
BILL Greg#67840-49 Male0:14:04"10.9 " 141
RAINEY Peter#64040-49 Male0:14:05"10.9 " 152
MANTEIT Michael#683Junior Male0:14:08"10.8 " 164
GIN Elliot#679Junior Male0:14:11"10.8 " 175
DALLINGER Andrew#110Senior Male0:14:15"10.7 " 188
ARMSTRONG Emma#375Senior Female0:14:16"10.7 " 193
GAILBRAITH Dana#727Male 50+0:14:18"10.7 " 202
MITCHELL Edward#115Senior Male0:14:29"10.6 " 219
BUTTERWORTH Bizzy#31340-49 Female0:14:34"10.5 " 221
TILLEY Justin#171Senior Male0:14:35"10.5 " 2310
JUDD Alex#122Senior Male0:14:36"10.5 " 2411
BUTLER Laura#338Junior Female0:14:42"10.4 " 251
WILLIAMS Max#608Junior Male0:14:42"10.4 " 266
PAGE Stephen#63940-49 Male0:14:44"10.4 " 273
HARRISON Hamish#102Senior Male0:14:47"10.3 " 2812
VAN AGTMAAL Beau#717Junior Male0:14:48"10.3 " 297
WALLER Mark#61740-49 Male0:14:52"10.3 " 304
BOND Marcus#69Senior Male0:14:53"10.3 " 3113
ESSING Wayne#756Male 50+0:14:53"10.3 " 323
HOLUB Taylor#169Senior Male0:15:01"10.2 " 3314
SCOTT Adam#117Senior Male0:15:02"10.2 " 3415
THOMAS Andrew#76040-49 Male0:15:04"10.2 " 355
WALLACE Tim#60Senior Male0:15:06"10.1 " 3616
DISTON Mitchell#766Junior Male0:15:06"10.1 " 378
DESSENT Tiger#62740-49 Male0:15:06"10.1 " 386
KILDAY Ben#196Senior Male0:15:08"10.1 " 3917
CROFT Greg#759Male 50+0:15:08"10.1 " 404
RAINEY Helen#31740-49 Female0:15:14"10.0 " 412
CORBETT Jim#69740-49 Male0:15:19"10.0 " 427
SORATI Ty#118Senior Male0:15:25"9.9 " 4318
YUSKO Bill#73440-49 Male0:15:27"9.9 " 448
NEWTON Rodney#62940-49 Male0:15:28"9.9 " 459
LEWIS Dayne#38Senior Male0:15:33"9.8 " 4619
BUTLER Clare#337Junior Female0:15:34"9.8 " 472
HENDRICKS Vaughn#105Senior Male0:15:36"9.8 " 4820
PIEPER Daniel#133Senior Male0:15:39"9.8 " 4921
HARRIS Raeleigh#30840-49 Female0:15:39"9.8 " 503
ELLIS Chris#145Senior Male0:15:40"9.8 " 5122
BAILEY Adam#81Senior Male0:15:44"9.7 " 5223
BIBBY Anthony#73040-49 Male0:15:45"9.7 " 5310
WEIR Jake#33Senior Male0:15:47"9.7 " 5424
GUPPY Sasha#451Junior Female0:15:48"9.7 " 553
SLAVIN Cassie#453Senior Female0:15:50"9.7 " 564
SEXTON Mark#31Senior Male0:15:51"9.7 " 5725
WILKINS Shaun#162Senior Male0:15:51"9.7 " 5826
CAPLE Alex#132Senior Male0:15:52"9.6 " 5927
CROW Brenton#76Senior Male0:15:53"9.6 " 6028
TURNER Peter#708Male 50+0:15:53"9.6 " 615
WINTLE Paul#139Senior Male0:15:56"9.6 " 6229
TURNER Georgia#422Junior Female0:15:57"9.6 " 634
BONDARENKO Alexsei#152Senior Male0:16:01"9.6 " 6430
DISTON Ashlee#444Junior Female0:16:03"9.5 " 655
CHISHOLM Andy#63640-49 Male0:16:03"9.5 " 6611
SMITH Tamzyn#339Junior Female0:16:04"9.5 " 676
STINEAR Tim#77040-49 Male0:16:06"9.5 " 6812
VANDERSTEEN Bevan#130Senior Male0:16:08"9.5 " 6931
HUGHES Hilary#381Senior Female0:16:10"9.5 " 705
BUTTIFANT David#70740-49 Male0:16:16"9.4 " 7113
ONLEY Thomas#126Senior Male0:16:17"9.4 " 7232
ROBERTSON Dan#10Senior Male0:16:17"9.4 " 7333
COMMINS Alex#61640-49 Male0:16:17"9.4 " 7414
BIBBY Daniel#212Senior Male0:16:20"9.4 " 7534
SAUNDERS Prue#369Senior Female0:16:20"9.4 " 766
WHITLA James#61340-49 Male0:16:20"9.4 " 7715
STREEFKERK Jack#78Senior Male0:16:21"9.4 " 7835
HETERSBRUEG Andre#127Senior Male0:16:21"9.4 " 7936
TEHENNEYE Jake#142Senior Male0:16:21"9.4 " 8037
JONES Sean#746Junior Male0:16:21"9.4 " 819
BENDTSEN Katrina#335Junior Female0:16:25"9.3 " 827
MAHON Debbi#400Senior Female0:16:25"9.3 " 837
CARTER Lachlan#140Senior Male0:16:26"9.3 " 8438
BALDING Rachel#30640-49 Female0:16:28"9.3 " 854
DUNCAN Michael#21Senior Male0:16:30"9.3 " 8639
MORGAN Stephanie#362Senior Female0:16:31"9.3 " 878
JUDD Gary#693Male 50+0:16:31"9.3 " 886
MATTHEWS Jack#119Senior Male0:16:33"9.2 " 8940
VAUX Benjamin#124Senior Male0:16:34"9.2 " 9041
SESTO Vince#43Senior Male0:16:34"9.2 " 9142
BEHRSIN John#705Male 50+0:16:34"9.2 " 927
CARSON Sarah#464Senior Female0:16:35"9.2 " 939
COLLINGS Bryce#603Junior Male0:16:35"9.2 " 9410
PRICE Brodie#42Senior Male0:16:40"9.2 " 9543
CROWE Susie#441Senior Female0:16:40"9.2 " 9610
GROVES Travis#676Junior Male0:16:41"9.2 " 9711
O'HALLORAN Nick#59Senior Male0:16:43"9.2 " 9844
EDWARDS Molly#398Junior Female0:16:49"9.1 " 998
ANTHONY Max#604Junior Male0:16:49"9.1 " 10012
MURPHY Leigh#108Senior Male0:16:50"9.1 " 10145
ELLIS Nick#146Senior Male0:16:50"9.1 " 10246
DIGGINS Stephanie#405Senior Female0:16:50"9.1 " 10311
PAGE Troy#82Senior Male0:16:53"9.1 " 10447
DALLINGER Chris#156Senior Male0:16:54"9.1 " 10548
PRICE Kate#354Senior Female0:16:55"9.0 " 10612
MARSHALL Luke#128Senior Male0:16:56"9.0 " 10749
PRYOR Anthony#137Senior Male0:16:57"9.0 " 10850
O'BRYAN Robert#143Senior Male0:16:59"9.0 " 10951
MORRIS Rachael#349Senior Female0:17:01"9.0 " 11013
SULLIVAN Matt#602Junior Male0:17:03"9.0 " 11113
HARRIS Michelle#382Senior Female0:17:04"9.0 " 11214
BROWNE Rebecca#344Senior Female0:17:04"9.0 " 11315
CICCONE Joseph#751Junior Male0:17:04"9.0 " 11414
HALE Tyler#200Senior Male0:17:08"8.9 " 11552
HAYES Albert#62040-49 Male0:17:08"8.9 " 11616
CURTIS Yarran#725Junior Male0:17:08"8.9 " 11715
THOMAS Brodie#726Junior Male0:17:08"8.9 " 11816
LENNE Heath#39Senior Male0:17:11"8.9 " 11953
CUNNINGHAM Emma#408Senior Female0:17:13"8.9 " 12016
MCLEAN Lachlan#70Senior Male0:17:15"8.9 " 12154
ROBERTSON Lauren#342Junior Female0:17:15"8.9 " 1229
WOODROFFE Saxon#90Senior Male0:17:16"8.9 " 12355
BOURKE Lucy#440Senior Female0:17:16"8.9 " 12417
PHELAN Glenn#61440-49 Male0:17:16"8.9 " 12517
CLOSE Jason#76740-49 Male0:17:19"8.8 " 12618
WRIGHT Marcus#170Senior Male0:17:21"8.8 " 12756
RAMAGE Daniel#159Senior Male0:17:22"8.8 " 12857
KENNEDY Kane#93Senior Male0:17:23"8.8 " 12958
GYLES Hugh#58Senior Male0:17:24"8.8 " 13059
PRICE Timothy#97Senior Male0:17:24"8.8 " 13160
FRANSEN Kable#180Senior Male0:17:24"8.8 " 13261
TERLICH Chris#32Senior Male0:17:25"8.8 " 13362
BEHRSIN Brianna#418Junior Female0:17:25"8.8 " 13410
DYKES Christophe#149Senior Male0:17:26"8.8 " 13563
DAVIE Jasmine#470Senior Female0:17:26"8.8 " 13618
LEA Michael#131Senior Male0:17:30"8.7 " 13764
CHESHIRE Tom#41Senior Male0:17:34"8.7 " 13865
BELL Ashlea#468Junior Female0:17:36"8.7 " 13911
SHEEDY Anthony#74040-49 Male0:17:36"8.7 " 14019
FOOTE Nathan#728Junior Male0:17:36"8.7 " 14117
MARR Tim#94Senior Male0:17:37"8.7 " 14266
BYRNE Stephen#654Male 50+0:17:38"8.7 " 1438
MCINDOE Kayla#376Senior Female0:17:39"8.7 " 14419
LIDDELL Maryanne#462Senior Female0:17:41"8.7 " 14520
CAMERON Jane#401Female 50+0:17:42"8.6 " 1461
FISHER Kevin#69840-49 Male0:17:42"8.6 " 14720
CHIVERS Luke#45Senior Male0:17:43"8.6 " 14867
HARBINSON Yvette#424Senior Female0:17:43"8.6 " 14921
ANDREOLA Declan#706Junior Male0:17:43"8.6 " 15018
STUBBLES Marcus#63840-49 Male0:17:46"8.6 " 15121
COLLINGS Georgia#361Senior Female0:17:47"8.6 " 15222
CREER Andrew#69440-49 Male0:17:48"8.6 " 15322
COGHLAN Jesse#138Senior Male0:17:49"8.6 " 15468
GOSPER Elizabeth#331Female 50+0:17:49"8.6 " 1552
DARKER Sarah#365Senior Female0:17:49"8.6 " 15623
SALTON Marcus#34Senior Male0:17:50"8.6 " 15769
WEBSTER Ashton#183Senior Male0:17:51"8.6 " 15870
ROBERTS Simon#157Senior Male0:17:51"8.6 " 15971
GOLDIE Tony#75040-49 Male0:17:51"8.6 " 16023
TAYLOR Shane#710Junior Male0:17:51"8.6 " 16119
O'CONNELL Arna#32140-49 Female0:17:52"8.6 " 1625
COLLINGS Dale#62340-49 Male0:17:52"8.6 " 16324
O'BRIEN Shannon#205Senior Male0:17:53"8.6 " 16472
POULTON Andrew#77140-49 Male0:17:53"8.6 " 16525
YOUNG Benjamin#113Senior Male0:17:54"8.5 " 16673
O'CONNOR Wesley#103Senior Male0:17:54"8.5 " 16774
RAWLINGSEN Darcy#173Senior Male0:17:54"8.5 " 16875
BARNES John#650Male 50+0:17:56"8.5 " 1699
EAVES Sebastian#125Senior Male0:17:57"8.5 " 17076
TOOHEY Bartholome#40Senior Male0:17:58"8.5 " 17177
SKIPPER Darryn#22Senior Male0:17:58"8.5 " 17278
DAFF Geoff#691Male 50+0:17:58"8.5 " 17310
NOLAN Toddy#75Senior Male0:18:00"8.5 " 17479
GILL Jack#55Senior Male0:18:01"8.5 " 17580
KOGELMAN Jacob#26Senior Male0:18:02"8.5 " 17681
GUPPY Isaac#741Junior Male0:18:02"8.5 " 17720
SAUNDERS Allan#755Male 50+0:18:03"8.5 " 17811
NICHOLS Dean#606Junior Male0:18:03"8.5 " 17921
CANN Lara#357Senior Female0:18:05"8.5 " 18024
LANGFORD Dean#700Male 50+0:18:06"8.5 " 18112
COLLINS Steve#62240-49 Male0:18:07"8.4 " 18226
ROWE Joel#19Senior Male0:18:08"8.4 " 18382
MC HENRY Simon#111Senior Male0:18:08"8.4 " 18483
GRIFFITHS Kylie#41440-49 Female0:18:08"8.4 " 1856
FINNIS Matt#194Senior Male0:18:10"8.4 " 18684
BRYDEN Stewart#69640-49 Male0:18:11"8.4 " 18727
WINSTANLEY Benjamin#57Senior Male0:18:12"8.4 " 18885
BORN Christian#46Senior Male0:18:13"8.4 " 18986
FRASER Jodie#433Senior Female0:18:13"8.4 " 19025
TANNER Patrick#607Junior Male0:18:13"8.4 " 19122
JONES Paul#666Male 50+0:18:15"8.4 " 19213
EVERY Louise#370Senior Female0:18:19"8.4 " 19326
WEIGHTMAN Jake#123Senior Male0:18:20"8.3 " 19487
LEA Trevor#657Male 50+0:18:20"8.3 " 19514
NICHOLSON James#165Senior Male0:18:22"8.3 " 19688
GAILBRAITH Lynne#43940-49 Female0:18:22"8.3 " 1977
MINTER Kris#6Senior Male0:18:26"8.3 " 19889
ROMANIS Susie#358Senior Female0:18:26"8.3 " 19927
HERRINGTON Cameron#71940-49 Male0:18:26"8.3 " 20028
LYNCH Ashley#195Senior Male0:18:27"8.3 " 20190
MARKS Greg#16Senior Male0:18:27"8.3 " 20291
WEBB Brendan#48Senior Male0:18:28"8.3 " 20392
PARSONS Eddie#186Senior Male0:18:28"8.3 " 20493
OLSEN Andrea#413Senior Female0:18:28"8.3 " 20528
BAGLEX Jarrod#160Senior Male0:18:31"8.3 " 20694
JOHNSTONE Chris#11240-49 Male0:18:31"8.3 " 20729
CAPLE Eliza#379Senior Female0:18:34"8.2 " 20829
FITZGERALD Ryan#164Senior Male0:18:35"8.2 " 20995
LANGFORD Imigen#412Junior Female0:18:36"8.2 " 21012
DAVINE Jim#74340-49 Male0:18:36"8.2 " 21130
ALDERSON Allan#774Male 50+0:18:36"8.2 " 21215
CURTIS Brad#72440-49 Male0:18:36"8.2 " 21331
MACKENZIE Thomas#91Senior Male0:18:37"8.2 " 21496
BOURKE Steven#201Senior Male0:18:37"8.2 " 21597
KAY Elizabeth#429Senior Female0:18:37"8.2 " 21630
LAUGHTON Paul#72240-49 Male0:18:37"8.2 " 21732
GILLILAND Paula#384Senior Female0:18:38"8.2 " 21831
WHITE Fiona#347Senior Female0:18:40"8.2 " 21932
HELLEMA Ben#85Senior Male0:18:41"8.2 " 22098
ORYZAK Dion#28Senior Male0:18:42"8.2 " 22199
EMERY Mick#658Male 50+0:18:43"8.2 " 22216
TAYLOR Jack#711Junior Male0:18:43"8.2 " 22323
O'DONOHUE Jacob#686Junior Male0:18:45"8.2 " 22424
PEMBERTON Mark#209Senior Male0:18:46"8.2 " 225100
LUCK Jarrod#62540-49 Male0:18:47"8.1 " 22633
MORGAN Briony#426Senior Female0:18:48"8.1 " 22733
PARKER Louis#7Senior Male0:18:49"8.1 " 228101
TOOHEY Zac#67Senior Male0:18:49"8.1 " 229102
SEIFE Aaron#177Senior Male0:18:51"8.1 " 230103
CHISHOLM Paul#14Senior Male0:18:51"8.1 " 231104
MALIOS Todd#75340-49 Male0:18:52"8.1 " 23234
HARRIS Simon#86Senior Male0:18:53"8.1 " 233105
LANDELLS Kara#466Senior Female0:18:54"8.1 " 23434
BOLDISTON Michael#64Senior Male0:18:55"8.1 " 235106
GUNNNG Emily#436Senior Female0:18:57"8.1 " 23635
POTTER Jock#155Senior Male0:18:59"8.1 " 237107
FLEISNER Paul#672Male 50+0:19:00"8.1 " 23817
HERBERT Duncan#72040-49 Male0:19:01"8.0 " 23935
KIRBY Nicholas#731Junior Male0:19:02"8.0 " 24025
BOZKEWYCZ Russell#68Senior Male0:19:04"8.0 " 241108
TEMPLAR Natalie#333Junior Female0:19:04"8.0 " 24213
O'DONOHUE Mark#68540-49 Male0:19:04"8.0 " 24336
HEWTON Brad#151Senior Male0:19:05"8.0 " 244109
BAXTER Virginia#40340-49 Female0:19:05"8.0 " 2458
RINGROSE Paul#661Male 50+0:19:07"8.0 " 24618
TUFF Stephen#182Senior Male0:19:08"8.0 " 247110
DODD Jennifer#324Female 50+0:19:09"8.0 " 2483
HUMBERT Cara#336Junior Female0:19:09"8.0 " 24914
HIGGINSON Jack#176Senior Male0:19:10"8.0 " 250111
JONES Mark#74740-49 Male0:19:10"8.0 " 25137
STAFFORD Rachel#31140-49 Female0:19:13"8.0 " 2529
COLE Nichlolas#77240-49 Male0:19:14"8.0 " 25338
MC CABE Patrick#198Senior Male0:19:16"7.9 " 254112
NICHOLSON Garry#737Male 50+0:19:17"7.9 " 25519
WILLIAMS Ian#63540-49 Male0:19:19"7.9 " 25639
WRIGHT-SMITH Angus#601Junior Male0:19:20"7.9 " 25726
SANCHEZ Julien#29Senior Male0:19:22"7.9 " 258113
HIBBLE Jenny#328Female 50+0:19:23"7.9 " 2594
GUILMARTIN Jack#174Senior Male0:19:25"7.9 " 260114
ANTHONY Michael#63040-49 Male0:19:25"7.9 " 26140
WEIGHTMAN Ricky#402Junior Female0:19:26"7.9 " 26215
WILSON Dale#71240-49 Male0:19:26"7.9 " 26341
HAWKINS Ricci#435Senior Female0:19:28"7.9 " 26436
MILLS Caroline#471Senior Female0:19:31"7.8 " 26537
HAYNE Rodney#44Senior Male0:19:32"7.8 " 266115
GARVIE Anita#32240-49 Female0:19:32"7.8 " 26710
MCINDOE Courtney#378Senior Female0:19:34"7.8 " 26838
VAUGHAN Clinton#211Senior Male0:19:35"7.8 " 269116
SYMONS Tim#98Senior Male0:19:35"7.8 " 270117
SUTHERLAND Michael#76140-49 Male0:19:35"7.8 " 27142
SYMES Jake#134Senior Male0:19:36"7.8 " 272118
DODDS Janine#30940-49 Female0:19:36"7.8 " 27311
BROWN Brett#61540-49 Male0:19:36"7.8 " 27443
CREAN Peter#651Male 50+0:19:36"7.8 " 27520
CLARK Peter#682Male 50+0:19:37"7.8 " 27621
FASKEN Ian#64740-49 Male0:19:38"7.8 " 27744
KYLE Danielle#31940-49 Female0:19:39"7.8 " 27812
WILSON Russell#655Male 50+0:19:39"7.8 " 27922
GORDON Luke#100Senior Male0:19:42"7.8 " 280119
STEHPHENS Kristy#463Senior Female0:19:42"7.8 " 28139
O'SHANNESSY Peter#757Male 50+0:19:43"7.8 " 28223
PRYOR Brendan#135Senior Male0:19:45"7.7 " 283120
BORN Daniel#47Senior Male0:19:45"7.7 " 284121
HEISLERS Chris#76240-49 Male0:19:45"7.7 " 28545
WINSTANLEY Colin#668Male 50+0:19:45"7.7 " 28624
HADAWAY Emma#355Senior Female0:19:47"7.7 " 28740
SISSON Brad#13Senior Male0:19:48"7.7 " 288122
MARTIN Jena#457Senior Female0:19:49"7.7 " 28941
CROSS Graham#671Male 50+0:19:50"7.7 " 29025
BARTLETT Lee#79Senior Male0:19:52"7.7 " 291123
HALL Ben#187Senior Male0:19:52"7.7 " 292124
BROWN Sean#73540-49 Male0:19:53"7.7 " 29346
MOSELEY Tessa#351Senior Female0:19:54"7.7 " 29442
O'BRYAN Steven#161Senior Male0:19:55"7.7 " 295125
TYRRELL Sarah#420Senior Female0:19:56"7.7 " 29643
WETZLER David#73Senior Male0:19:59"7.7 " 297126
TILLEY Derryn#172Senior Male0:20:01"7.6 " 298127
MOORE Jeremy#101Senior Male0:20:01"7.6 " 299128
MILLETT Sue#31540-49 Female0:20:05"7.6 " 30013
O'CONNELL Michael#96Senior Male0:20:06"7.6 " 301129
COKER Myles#63Senior Male0:20:07"7.6 " 302130
MANNING Simon#68440-49 Male0:20:09"7.6 " 30347
SCOTT Mitchell#204Senior Male0:20:10"7.6 " 304131
STELZER Hermann#699Male 50+0:20:10"7.6 " 30526
CARR Bec#399Senior Female0:20:10"7.6 " 30644
GARVIE Andrew#611Junior Male0:20:10"7.6 " 30727
WILLIAMS Sean#163Senior Male0:20:11"7.6 " 308132
MCFEE Jennifer#340Junior Female0:20:11"7.6 " 30916
CRAIG Lucas#61Senior Male0:20:12"7.6 " 310133
MARSHALL Sarah#411Senior Female0:20:12"7.6 " 31145
WHITE Ben#208Senior Male0:20:14"7.6 " 312134
LEDDIN Peter#649Male 50+0:20:15"7.6 " 31327
GODING Lindsay#203Senior Male0:20:17"7.5 " 314135
MARRINER Cynthia#38740-49 Female0:20:19"7.5 " 31514
MORRISON Kerry#472Female 50+0:20:19"7.5 " 3165
PATKIN Kate#449Senior Female0:20:20"7.5 " 31746
KENNEDY Lucas#129Senior Male0:20:24"7.5 " 318136
COLENSO Mary#42340-49 Female0:20:24"7.5 " 31915
PIENS Jerome#61840-49 Male0:20:24"7.5 " 32048
WIGISHOFF Nicolas#71Senior Male0:20:25"7.5 " 321137
DEVINE Allison#390Female 50+0:20:25"7.5 " 3226
IGLESIAS Philip#207Senior Male0:20:27"7.5 " 323138
BRETT Shelley#371Senior Female0:20:27"7.5 " 32447
CARSON Anthony#199Senior Male0:20:28"7.5 " 325139
EGAN Deb#419Female 50+0:20:28"7.5 " 3267
HART Laura#461Senior Female0:20:29"7.5 " 32748
ZIMMERMAN Kirrily#380Senior Female0:20:30"7.5 " 32849
THOMPSON Grant#179Senior Male0:20:32"7.5 " 329140
ALAMANTINE Arthur#158Senior Male0:20:32"7.5 " 330141
VIRTUE Melinda#43740-49 Female0:20:32"7.5 " 33116
REIDY Andrew#56Senior Male0:20:33"7.4 " 332142
ROBERTS Christian#95Senior Male0:20:33"7.4 " 333143
CHAPPELL Guy#52Senior Male0:20:34"7.4 " 334144
MC CASKER Jessica#454Senior Female0:20:35"7.4 " 33550
HENDY Dale#63140-49 Male0:20:39"7.4 " 33649
CHANDLER Mark#121Senior Male0:20:40"7.4 " 337145
DALLINGER Brian#718Male 50+0:20:42"7.4 " 33828
BREAKSPEAR Annette#417Female 50+0:20:44"7.4 " 3398
WALLACE Drew#72940-49 Male0:20:46"7.4 " 34050
SMITH Ed#54Senior Male0:20:47"7.4 " 341146
POOLE Diana#350Senior Female0:20:47"7.4 " 34251
TOOHEY Joshua#53Senior Male0:20:48"7.4 " 343147
MC DONALD Kellie#392Senior Female0:20:49"7.3 " 34452
MERRICK Jenny#323Female 50+0:20:50"7.3 " 3459
CAIN Greg#777Male 50+0:20:53"7.3 " 34629
JOHNSON Ray#70940-49 Male0:20:58"7.3 " 34751
BARNETT Nicholas#84Senior Male0:20:59"7.3 " 348148
JONES Zachary#188Senior Male0:21:00"7.3 " 349149
HEMPENSTALL Ella#366Senior Female0:21:01"7.3 " 35053
BORN Tim#63340-49 Male0:21:03"7.3 " 35152
NEWMAN Nadine#46740-49 Female0:21:03"7.3 " 35217
WRIGHT Phil#739Male 50+0:21:05"7.3 " 35330
GRABIA Rex#213Senior Male0:21:06"7.3 " 354150
SUDBURY Eva#373Senior Female0:21:07"7.2 " 35554
COUSENS Sarre#353Senior Female0:21:09"7.2 " 35655
KEOGH Peter#74940-49 Male0:21:09"7.2 " 35753
COOK Peter#742Male 50+0:21:09"7.2 " 35831
SMYTH John#167Senior Male0:21:11"7.2 " 359151
CARR Vern#120Senior Male0:21:12"7.2 " 360152
FREDERICKS Kiah#148Senior Male0:21:15"7.2 " 361153
PHILLIPS Matthew#150Senior Male0:21:17"7.2 " 362154
COLLINS John#745Male 50+0:21:17"7.2 " 36332
MATTHEWS Bob#680Male 50+0:21:21"7.2 " 36433
PARSONS Stacey#460Senior Female0:21:27"7.1 " 36556
BREMNER James#92Senior Male0:21:31"7.1 " 366155
FITZGERALD Rick#660Male 50+0:21:32"7.1 " 36734
ARFI Daniel#189Senior Male0:21:33"7.1 " 368156
MALONEY Brett#89Senior Male0:21:34"7.1 " 369157
POWERS Cara#404Senior Female0:21:34"7.1 " 37057
WEBBER Neil#677Male 50+0:21:36"7.1 " 37135
WARING Colin#64540-49 Male0:21:36"7.1 " 37254
VAN DER HEYDEN Natalie#391Senior Female0:21:36"7.1 " 37358
WILLIAMS Phil#773Male 50+0:21:36"7.1 " 37436
MUDRINSKY Tara#383Senior Female0:21:37"7.1 " 37559
EMMETT Niki#45640-49 Female0:21:40"7.1 " 37618
MAC GILL Fiona#393Senior Female0:21:42"7.1 " 37760
BURTON Bradley#114Senior Male0:21:45"7.0 " 378158
MIRAMS Steve#206Senior Male0:21:46"7.0 " 379159
LEECH David#83Senior Male0:21:48"7.0 " 380160
COMMERFORD Peter#764Male 50+0:21:48"7.0 " 38137
ELBERS Scott#184Senior Male0:21:50"7.0 " 382161
EGAN Holly#395Junior Female0:21:53"7.0 " 38317
BAYLIS Dannielle#44240-49 Female0:21:54"7.0 " 38419
DARROCH Michael#166Senior Male0:21:56"7.0 " 385162
PAYNE Kevin#73640-49 Male0:22:00"7.0 " 38655
TOOHEY Lyn#326Female 50+0:22:02"6.9 " 38710
NAGLE Cameron#30Senior Male0:22:04"6.9 " 388163
PEZZIMENTI Fred#758Male 50+0:22:04"6.9 " 38938
CARTER Dean#653Male 50+0:22:04"6.9 " 39039
KIRBY Eleanor#446Junior Female0:22:05"6.9 " 39118
FOON Wayne#50Senior Male0:22:06"6.9 " 392164
WALDER Charles#64640-49 Male0:22:07"6.9 " 39356
DAVIES Peter#62840-49 Male0:22:09"6.9 " 39457
HAWKINS Clive#768Male 50+0:22:10"6.9 " 39540
SYME Michael#659Male 50+0:22:11"6.9 " 39641
NOLAN Stephen#665Male 50+0:22:11"6.9 " 39742
CAMENZULI Maria#40640-49 Female0:22:13"6.9 " 39820
BROWN Richard#713Male 50+0:22:14"6.9 " 39943
HAWKINS Shane#214Senior Male0:22:16"6.9 " 400165
BYRON Stuart#5Senior Male0:22:17"6.9 " 401166
MITCHELL Adam#62Senior Male0:22:20"6.9 " 402167
SEWELL Catherine#372Senior Female0:22:21"6.8 " 40361
EMMETT Daniel#191Senior Male0:22:22"6.8 " 404168
HANSON Thomas#23Senior Male0:22:24"6.8 " 405169
MOUNTJOY Libby#363Senior Female0:22:24"6.8 " 40662
EGAN Karen#39440-49 Female0:22:24"6.8 " 40721
TSINDOS Laura#367Senior Female0:22:25"6.8 " 40863
WOLF Peter#168Senior Male0:22:28"6.8 " 409170
READ Ken#69540-49 Male0:22:29"6.8 " 41058
MUIR Anthony#75440-49 Male0:22:30"6.8 " 41159
MC DONALD Stephanie#430Senior Female0:22:33"6.8 " 41264
MUNDAY Megan#30240-49 Female0:22:34"6.8 " 41322
STEWART Jean#346Senior Female0:22:35"6.8 " 41465
MACGREGOR Sam#31640-49 Female0:22:36"6.8 " 41523
WEBBER Simone#38840-49 Female0:22:36"6.8 " 41624
ANDERSON Chris#87Senior Male0:22:39"6.8 " 417171
MOORE Emma#30140-49 Female0:22:40"6.7 " 41825
NOLAN Eliza#368Senior Female0:22:41"6.7 " 41966
LEA Edwina#360Senior Female0:22:52"6.7 " 42067
SPITERI Maverick#64140-49 Male0:22:55"6.7 " 42160
POLLARD-VIRTUE Caleb#716Junior Male0:22:57"6.7 " 42228
HOLLINS Jenny#31440-49 Female0:22:57"6.7 " 42326
ROBINSON Murray#776Male 50+0:22:58"6.7 " 42444
DOUGLAS Steve#675Male 50+0:22:58"6.7 " 42545
JOHNSTONE Garry#690Male 50+0:22:58"6.7 " 42646
BLUNDY Rebecca#438Senior Female0:23:01"6.6 " 42768
SHAW Peter#763Male 50+0:23:06"6.6 " 42847
VIRTUE Blade#715Junior Male0:23:11"6.6 " 42929
CICCONE Daniel#752Junior Male0:23:12"6.6 " 43030
GOOEY Jan#389Female 50+0:23:13"6.6 " 43111
STAFFORD Tom#178Senior Male0:23:15"6.6 " 432172
ADKINS Susan#30440-49 Female0:23:15"6.6 " 43327
LUNT Julie#348Senior Female0:23:19"6.6 " 43469
GIBBS Brett#61940-49 Male0:23:19"6.6 " 43561
CUTHBERTSON Wynonna#469Senior Female0:23:20"6.6 " 43670
GOODE Tom#652Male 50+0:23:24"6.5 " 43748
KOGELMAN Russell#25Senior Male0:23:24"6.5 " 438173
BYRNE Grace#332Junior Female0:23:25"6.5 " 43919
HELLEMA Daniel#17Senior Male0:23:26"6.5 " 440174
ANDREOLA Flinders#704Junior Male0:23:30"6.5 " 44131
MOULD Annie#359Senior Female0:23:32"6.5 " 44271
HAYES Frank#721Male 50+0:23:33"6.5 " 44349
JOHNSON Simon#51Senior Male0:23:37"6.5 " 444175
MUNDAY Jeremy#11Senior Male0:23:38"6.5 " 445176
WALKER Christine#396Female 50+0:23:39"6.5 " 44612
CURPHEY Jane#407Female 50+0:23:43"6.5 " 44713
DWYER Deane#428Senior Female0:23:46"6.4 " 44872
GREENER Simon#144Senior Male0:23:48"6.4 " 449177
DYNON Paul#63440-49 Male0:23:49"6.4 " 45062
GILLIAN Johnson#31840-49 Female0:23:52"6.4 " 45128
MORETON Andrew#63740-49 Male0:24:03"6.4 " 45263
WILLIS Eddy#448Female 50+0:24:11"6.3 " 45314
HOCKING Hayleigh#427Senior Female0:24:11"6.3 " 45473
LLOYD Greg#62140-49 Male0:24:12"6.3 " 45564
CHRISTEN Tom#9Senior Male0:24:16"6.3 " 456178
EMMANOUIL Nia#443Senior Female0:24:19"6.3 " 45774
COSTAGANNA Clara#30540-49 Female0:24:20"6.3 " 45829
PHILLIPS-ROSS Karen#44740-49 Female0:24:21"6.3 " 45930
CHASTON Peter#673Male 50+0:24:21"6.3 " 46050
DE VRIES Pieter#64240-49 Male0:24:22"6.3 " 46165
ELLARD Malcolm#73240-49 Male0:24:22"6.3 " 46266
ANGLIM Bernard#674Male 50+0:24:34"6.2 " 46351
MC KENZIE Andrew#687Male 50+0:24:37"6.2 " 46452
EKLUND Graham#689Male 50+0:24:37"6.2 " 46553
ANDERSON Lisa#30340-49 Female0:24:41"6.2 " 46631
CRAIG Mitch#190Senior Male0:24:44"6.2 " 467179
MASON Darryl#62440-49 Male0:24:45"6.2 " 46867
COUSINS Richard#61240-49 Male0:24:48"6.2 " 46968
WRIGHT Jeff#667Male 50+0:24:50"6.2 " 47054
BLACKMAN Julie#364Senior Female0:24:53"6.1 " 47175
ORR Michele#45240-49 Female0:24:59"6.1 " 47232
CULLEN Richard#64340-49 Male0:25:04"6.1 " 47369
SUTHERLAND Bruce#765Male 50+0:25:18"6.0 " 47455
KEWMING Robyn#459Female 50+0:25:22"6.0 " 47515
PATON Lucie#41540-49 Female0:25:22"6.0 " 47633
TRAPPETT Stephen#70240-49 Male0:25:25"6.0 " 47770
STEVENS Laurel#32040-49 Female0:25:27"6.0 " 47834
STALEY Ryan#66Senior Male0:25:28"6.0 " 479180
CROUCH Peter#669Male 50+0:25:36"6.0 " 48056
BROWN Rob#80Senior Male0:25:38"6.0 " 481181
SAUNDERS Daemon#210Senior Male0:25:44"5.9 " 482182
BOWKER Colin#77540-49 Male0:25:47"5.9 " 48371
COOMES Rebecca#352Senior Female0:25:51"5.9 " 48476
RATCHEVA Radost#431Female 50+0:26:06"5.9 " 48516
WIZENBEEK Miak#723Male 50+0:26:12"5.8 " 48657
SUTHERLAND Ruby#465Junior Female0:26:20"5.8 " 48720
CLEELAND Pip#30740-49 Female0:26:29"5.8 " 48835
WALSHE Michael#73840-49 Male0:26:59"5.7 " 48972
SCHILLACI Michael#154Senior Male0:27:05"5.6 " 490183
GREENER Todd#147Senior Male0:27:12"5.6 " 491184
CHAMBERS Ron#663Male 50+0:27:20"5.6 " 49258
MAKINSON Chris#192Senior Male0:27:41"5.5 " 493185
WATTERSON Bryan#703Male 50+0:28:00"5.5 " 49459
HALL Stephanie#377Senior Female0:28:02"5.5 " 49577
CLEELAND Mike#662Male 50+0:28:07"5.4 " 49660
THOMAS Julie#329Female 50+0:28:15"5.4 " 49717
BOURKE Gay#330Female 50+0:28:27"5.4 " 49818
O'DONOHUE Lesley#39740-49 Female0:28:44"5.3 " 49936
LOEZ Bernard#656Male 50+0:29:09"5.2 " 50061
MOWLAM Fleur#356Senior Female0:29:12"5.2 " 50178
FRANSEN Robert#744Male 50+0:29:18"5.2 " 50262
HOSKING Craig#193Senior Male0:29:31"5.2 " 503186
SEWELL Jill#325Female 50+0:30:32"5.0 " 50419
BOND Vivienne#327Female 50+0:30:49"5.0 " 50520
DOWNWARD Dylan#692Junior Male0:31:43"4.8 " 50632
COLE Ian#733Male 50+0:31:51"4.8 " 50763
HORROCKS Mark#714Male 50+0:32:14"4.7 " 50864
WILSON Jack#197Senior Male0:32:57"4.6 " 509187
COOKE Paula#42540-49 Female0:34:11"4.5 " 51037
KONTOGOURIS Earlene#455Female 50+0:37:00"4.1 " 51121